sensor_id;sensor_type;location;lat;lon;timestamp;temperature;humidity
44223;DHT22;29895;48.804;9.386;2023-02-24T00:01:26;8.60;99.90
44223;DHT22;29895;48.804;9.386;2023-02-24T00:04:03;8.60;99.90
44223;DHT22;29895;48.804;9.386;2023-02-24T00:06:33;8.60;99.90
44223;DHT22;29895;48.804;9.386;2023-02-24T00:09:08;8.60;99.90
44223;DHT22;29895;48.804;9.386;2023-02-24T00:11:36;8.50;99.90
44223;DHT22;29895;48.804;9.386;2023-02-24T00:14:06;8.60;99.90
44223;DHT22;29895;48.804;9.386;2023-02-24T00:16:33;8.60;99.90
44223;DHT22;29895;48.804;9.386;2023-02-24T00:18:59;8.60;99.90
44223;DHT22;29895;48.804;9.386;2023-02-24T00:21:26;8.60;99.90
44223;DHT22;29895;48.804;9.386;2023-02-24T00:23:53;8.60;99.90
44223;DHT22;29895;48.804;9.386;2023-02-24T00:26:19;8.60;99.90
44223;DHT22;29895;48.804;9.386;2023-02-24T00:28:45;8.60;99.90
44223;DHT22;29895;48.804;9.386;2023-02-24T00:31:16;8.60;99.90
44223;DHT22;29895;48.804;9.386;2023-02-24T00:33:43;8.60;99.90
44223;DHT22;29895;48.804;9.386;2023-02-24T00:36:15;8.60;99.90
44223;DHT22;29895;48.804;9.386;2023-02-24T00:38:42;8.60;99.90
44223;DHT22;29895;48.804;9.386;2023-02-24T00:41:14;8.60;99.90
44223;DHT22;29895;48.804;9.386;2023-02-24T00:43:41;8.70;99.90
44223;DHT22;29895;48.804;9.386;2023-02-24T00:46:15;8.70;99.90
44223;DHT22;29895;48.804;9.386;2023-02-24T00:48:45;8.70;99.90
44223;DHT22;29895;48.804;9.386;2023-02-24T00:51:17;8.70;99.90
44223;DHT22;29895;48.804;9.386;2023-02-24T00:53:48;8.80;99.90
44223;DHT22;29895;48.804;9.386;2023-02-24T00:56:15;8.80;99.90
44223;DHT22;29895;48.804;9.386;2023-02-24T00:58:42;8.80;99.90
44223;DHT22;29895;48.804;9.386;2023-02-24T01:01:17;8.70;99.90
44223;DHT22;29895;48.804;9.386;2023-02-24T01:03:44;8.70;99.90
44223;DHT22;29895;48.804;9.386;2023-02-24T01:06:14;8.80;99.90
44223;DHT22;29895;48.804;9.386;2023-02-24T01:08:42;8.80;99.90
44223;DHT22;29895;48.804;9.386;2023-02-24T01:11:15;8.70;99.90
44223;DHT22;29895;48.804;9.386;2023-02-24T01:14:03;8.70;99.90
44223;DHT22;29895;48.804;9.386;2023-02-24T01:16:29;8.70;99.90
44223;DHT22;29895;48.804;9.386;2023-02-24T01:18:54;8.70;99.90
44223;DHT22;29895;48.804;9.386;2023-02-24T01:21:20;8.60;99.90
44223;DHT22;29895;48.804;9.386;2023-02-24T01:23:50;8.60;99.90
44223;DHT22;29895;48.804;9.386;2023-02-24T01:26:16;8.70;99.90
44223;DHT22;29895;48.804;9.386;2023-02-24T01:28:43;8.60;99.90
44223;DHT22;29895;48.804;9.386;2023-02-24T01:31:11;8.60;99.90
44223;DHT22;29895;48.804;9.386;2023-02-24T01:33:37;8.60;99.90
44223;DHT22;29895;48.804;9.386;2023-02-24T01:36:11;8.70;99.90
44223;DHT22;29895;48.804;9.386;2023-02-24T01:38:38;8.70;99.90
44223;DHT22;29895;48.804;9.386;2023-02-24T01:41:06;8.70;99.90
44223;DHT22;29895;48.804;9.386;2023-02-24T01:43:50;8.80;99.90
44223;DHT22;29895;48.804;9.386;2023-02-24T01:46:18;8.90;99.90
44223;DHT22;29895;48.804;9.386;2023-02-24T01:48:49;9.00;99.90
44223;DHT22;29895;48.804;9.386;2023-02-24T01:51:16;9.00;99.90
44223;DHT22;29895;48.804;9.386;2023-02-24T01:53:42;9.00;99.90
44223;DHT22;29895;48.804;9.386;2023-02-24T01:56:08;9.00;99.90
44223;DHT22;29895;48.804;9.386;2023-02-24T01:58:38;9.00;99.90
44223;DHT22;29895;48.804;9.386;2023-02-24T02:01:06;9.00;99.90
44223;DHT22;29895;48.804;9.386;2023-02-24T02:03:37;9.00;99.90
44223;DHT22;29895;48.804;9.386;2023-02-24T02:06:10;9.00;99.90
44223;DHT22;29895;48.804;9.386;2023-02-24T02:08:39;9.10;99.90
44223;DHT22;29895;48.804;9.386;2023-02-24T02:11:11;9.10;99.90
44223;DHT22;29895;48.804;9.386;2023-02-24T02:13:41;9.10;99.90
44223;DHT22;29895;48.804;9.386;2023-02-24T02:16:21;9.10;99.90
44223;DHT22;29895;48.804;9.386;2023-02-24T02:22:05;9.10;99.90
44223;DHT22;29895;48.804;9.386;2023-02-24T02:32:38;9.20;99.90
44223;DHT22;29895;48.804;9.386;2023-02-24T02:37:54;9.20;99.90
44223;DHT22;29895;48.804;9.386;2023-02-24T02:40:32;9.10;99.90
44223;DHT22;29895;48.804;9.386;2023-02-24T02:43:27;9.10;99.90
44223;DHT22;29895;48.804;9.386;2023-02-24T02:46:12;9.10;99.90
44223;DHT22;29895;48.804;9.386;2023-02-24T02:48:47;9.10;99.90
44223;DHT22;29895;48.804;9.386;2023-02-24T02:51:20;9.10;99.90
44223;DHT22;29895;48.804;9.386;2023-02-24T02:54:05;9.10;99.90
44223;DHT22;29895;48.804;9.386;2023-02-24T02:56:39;9.10;99.90
44223;DHT22;29895;48.804;9.386;2023-02-24T02:59:07;9.10;99.90
44223;DHT22;29895;48.804;9.386;2023-02-24T03:01:38;9.10;99.90
44223;DHT22;29895;48.804;9.386;2023-02-24T03:04:07;9.00;99.90
44223;DHT22;29895;48.804;9.386;2023-02-24T03:06:49;9.00;99.90
44223;DHT22;29895;48.804;9.386;2023-02-24T03:09:30;9.00;99.90
44223;DHT22;29895;48.804;9.386;2023-02-24T03:12:04;9.00;99.90
44223;DHT22;29895;48.804;9.386;2023-02-24T03:14:34;9.00;99.90
44223;DHT22;29895;48.804;9.386;2023-02-24T03:17:08;9.00;99.90
44223;DHT22;29895;48.804;9.386;2023-02-24T03:19:38;9.00;99.90
44223;DHT22;29895;48.804;9.386;2023-02-24T03:22:10;9.00;99.90
44223;DHT22;29895;48.804;9.386;2023-02-24T03:24:40;9.10;99.90
44223;DHT22;29895;48.804;9.386;2023-02-24T03:27:13;9.10;99.90
44223;DHT22;29895;48.804;9.386;2023-02-24T03:30:19;9.00;99.90
44223;DHT22;29895;48.804;9.386;2023-02-24T03:32:52;9.00;99.90
44223;DHT22;29895;48.804;9.386;2023-02-24T03:35:28;9.00;99.90
44223;DHT22;29895;48.804;9.386;2023-02-24T03:37:55;9.00;99.90
44223;DHT22;29895;48.804;9.386;2023-02-24T03:40:24;9.00;99.90
44223;DHT22;29895;48.804;9.386;2023-02-24T03:43:03;9.00;99.90
44223;DHT22;29895;48.804;9.386;2023-02-24T03:45:33;9.00;99.90
44223;DHT22;29895;48.804;9.386;2023-02-24T03:48:00;8.90;99.90
44223;DHT22;29895;48.804;9.386;2023-02-24T03:50:27;9.00;99.90
44223;DHT22;29895;48.804;9.386;2023-02-24T03:56:20;8.90;99.90
44223;DHT22;29895;48.804;9.386;2023-02-24T04:02:11;8.90;99.90
44223;DHT22;29895;48.804;9.386;2023-02-24T04:04:53;8.90;99.90
44223;DHT22;29895;48.804;9.386;2023-02-24T04:12:53;8.90;99.90
44223;DHT22;29895;48.804;9.386;2023-02-24T04:15:29;9.00;99.90
44223;DHT22;29895;48.804;9.386;2023-02-24T04:18:20;9.00;99.90
44223;DHT22;29895;48.804;9.386;2023-02-24T04:20:56;9.00;99.90
44223;DHT22;29895;48.804;9.386;2023-02-24T04:23:38;9.10;99.90
44223;DHT22;29895;48.804;9.386;2023-02-24T04:26:07;9.00;99.90
44223;DHT22;29895;48.804;9.386;2023-02-24T04:28:35;9.00;99.90
44223;DHT22;29895;48.804;9.386;2023-02-24T04:31:05;9.00;99.90
44223;DHT22;29895;48.804;9.386;2023-02-24T04:33:35;9.00;99.90
44223;DHT22;29895;48.804;9.386;2023-02-24T04:36:01;8.90;99.90
44223;DHT22;29895;48.804;9.386;2023-02-24T04:38:26;9.00;99.90
44223;DHT22;29895;48.804;9.386;2023-02-24T04:40:52;9.00;99.90
44223;DHT22;29895;48.804;9.386;2023-02-24T04:43:18;8.90;99.90
44223;DHT22;29895;48.804;9.386;2023-02-24T04:45:44;8.90;99.90
44223;DHT22;29895;48.804;9.386;2023-02-24T04:48:10;8.90;99.90
44223;DHT22;29895;48.804;9.386;2023-02-24T04:50:46;8.90;99.90
44223;DHT22;29895;48.804;9.386;2023-02-24T04:53:19;8.90;99.90
44223;DHT22;29895;48.804;9.386;2023-02-24T04:55:51;8.90;99.90
44223;DHT22;29895;48.804;9.386;2023-02-24T04:58:22;8.90;99.90
44223;DHT22;29895;48.804;9.386;2023-02-24T05:00:51;8.90;99.90
44223;DHT22;29895;48.804;9.386;2023-02-24T05:03:18;8.90;99.90
44223;DHT22;29895;48.804;9.386;2023-02-24T05:05:57;8.90;99.90
44223;DHT22;29895;48.804;9.386;2023-02-24T05:08:25;8.90;99.90
44223;DHT22;29895;48.804;9.386;2023-02-24T05:10:52;8.90;99.90
44223;DHT22;29895;48.804;9.386;2023-02-24T05:13:21;8.90;99.90
44223;DHT22;29895;48.804;9.386;2023-02-24T05:15:51;8.90;99.90
44223;DHT22;29895;48.804;9.386;2023-02-24T05:18:17;8.90;99.90
44223;DHT22;29895;48.804;9.386;2023-02-24T05:20:54;8.90;99.90
44223;DHT22;29895;48.804;9.386;2023-02-24T05:23:42;8.80;99.90
44223;DHT22;29895;48.804;9.386;2023-02-24T05:26:17;8.80;99.90
44223;DHT22;29895;48.804;9.386;2023-02-24T05:28:47;8.80;99.90
44223;DHT22;29895;48.804;9.386;2023-02-24T05:31:34;8.80;99.90
44223;DHT22;29895;48.804;9.386;2023-02-24T05:34:05;8.90;99.90
44223;DHT22;29895;48.804;9.386;2023-02-24T05:36:37;8.90;99.90
44223;DHT22;29895;48.804;9.386;2023-02-24T05:39:05;8.80;99.90
44223;DHT22;29895;48.804;9.386;2023-02-24T05:41:33;8.90;99.90
44223;DHT22;29895;48.804;9.386;2023-02-24T05:44:05;8.90;99.90
44223;DHT22;29895;48.804;9.386;2023-02-24T05:46:38;8.80;99.90
44223;DHT22;29895;48.804;9.386;2023-02-24T05:49:07;8.80;99.90
44223;DHT22;29895;48.804;9.386;2023-02-24T05:51:37;8.90;99.90
44223;DHT22;29895;48.804;9.386;2023-02-24T05:54:07;8.90;99.90
44223;DHT22;29895;48.804;9.386;2023-02-24T05:56:36;8.90;99.90
44223;DHT22;29895;48.804;9.386;2023-02-24T05:59:04;8.90;99.90
44223;DHT22;29895;48.804;9.386;2023-02-24T06:01:35;8.90;99.90
44223;DHT22;29895;48.804;9.386;2023-02-24T06:04:05;8.90;99.90
44223;DHT22;29895;48.804;9.386;2023-02-24T06:06:39;8.80;99.90
44223;DHT22;29895;48.804;9.386;2023-02-24T06:09:08;8.80;99.90
44223;DHT22;29895;48.804;9.386;2023-02-24T06:11:36;8.90;99.90
44223;DHT22;29895;48.804;9.386;2023-02-24T06:14:03;8.90;99.90
44223;DHT22;29895;48.804;9.386;2023-02-24T06:16:35;8.80;99.90
44223;DHT22;29895;48.804;9.386;2023-02-24T06:19:01;8.90;99.90
44223;DHT22;29895;48.804;9.386;2023-02-24T06:21:27;8.90;99.90
44223;DHT22;29895;48.804;9.386;2023-02-24T06:23:57;8.90;99.90
44223;DHT22;29895;48.804;9.386;2023-02-24T06:26:26;8.80;99.90
44223;DHT22;29895;48.804;9.386;2023-02-24T06:28:57;8.80;99.90
44223;DHT22;29895;48.804;9.386;2023-02-24T06:31:25;8.80;99.90
44223;DHT22;29895;48.804;9.386;2023-02-24T06:33:52;8.80;99.90
44223;DHT22;29895;48.804;9.386;2023-02-24T06:36:19;8.80;99.90
44223;DHT22;29895;48.804;9.386;2023-02-24T06:38:45;8.80;99.90
44223;DHT22;29895;48.804;9.386;2023-02-24T06:41:12;8.80;99.90
44223;DHT22;29895;48.804;9.386;2023-02-24T06:43:39;8.80;99.90
44223;DHT22;29895;48.804;9.386;2023-02-24T06:46:06;8.80;99.90
44223;DHT22;29895;48.804;9.386;2023-02-24T06:48:32;8.80;99.90
44223;DHT22;29895;48.804;9.386;2023-02-24T06:51:13;8.80;99.90
44223;DHT22;29895;48.804;9.386;2023-02-24T06:53:40;8.80;99.90
44223;DHT22;29895;48.804;9.386;2023-02-24T06:56:14;8.80;99.90
44223;DHT22;29895;48.804;9.386;2023-02-24T06:58:50;8.80;99.90
44223;DHT22;29895;48.804;9.386;2023-02-24T07:01:18;8.80;99.90
44223;DHT22;29895;48.804;9.386;2023-02-24T07:03:46;8.90;99.90
44223;DHT22;29895;48.804;9.386;2023-02-24T07:06:35;8.90;99.90
44223;DHT22;29895;48.804;9.386;2023-02-24T07:09:13;9.00;99.90
44223;DHT22;29895;48.804;9.386;2023-02-24T07:11:42;9.00;99.90
44223;DHT22;29895;48.804;9.386;2023-02-24T07:14:10;9.00;99.90
44223;DHT22;29895;48.804;9.386;2023-02-24T07:16:39;9.00;99.90
44223;DHT22;29895;48.804;9.386;2023-02-24T07:19:12;9.00;99.90
44223;DHT22;29895;48.804;9.386;2023-02-24T07:21:41;9.00;99.90
44223;DHT22;29895;48.804;9.386;2023-02-24T07:24:19;9.00;99.90
44223;DHT22;29895;48.804;9.386;2023-02-24T07:26:57;9.00;99.90
44223;DHT22;29895;48.804;9.386;2023-02-24T07:29:24;9.00;99.90
44223;DHT22;29895;48.804;9.386;2023-02-24T07:31:50;9.00;99.90
44223;DHT22;29895;48.804;9.386;2023-02-24T07:34:20;9.10;99.90
44223;DHT22;29895;48.804;9.386;2023-02-24T07:36:52;9.10;99.90
44223;DHT22;29895;48.804;9.386;2023-02-24T07:39:19;9.10;99.90
44223;DHT22;29895;48.804;9.386;2023-02-24T07:41:48;9.10;99.90
44223;DHT22;29895;48.804;9.386;2023-02-24T07:44:18;9.10;99.90
44223;DHT22;29895;48.804;9.386;2023-02-24T07:46:44;9.10;99.90
44223;DHT22;29895;48.804;9.386;2023-02-24T07:49:18;9.00;99.90
44223;DHT22;29895;48.804;9.386;2023-02-24T07:51:45;9.00;99.90
44223;DHT22;29895;48.804;9.386;2023-02-24T07:54:12;9.00;99.90
44223;DHT22;29895;48.804;9.386;2023-02-24T07:56:41;9.10;99.90
44223;DHT22;29895;48.804;9.386;2023-02-24T07:59:24;9.10;99.90
44223;DHT22;29895;48.804;9.386;2023-02-24T08:01:50;9.10;99.90
44223;DHT22;29895;48.804;9.386;2023-02-24T08:04:20;9.00;99.90
44223;DHT22;29895;48.804;9.386;2023-02-24T08:06:48;9.00;99.90
44223;DHT22;29895;48.804;9.386;2023-02-24T08:09:25;9.00;99.90
44223;DHT22;29895;48.804;9.386;2023-02-24T08:12:13;9.00;99.90
44223;DHT22;29895;48.804;9.386;2023-02-24T08:14:43;9.00;99.90
44223;DHT22;29895;48.804;9.386;2023-02-24T08:17:16;9.10;99.90
44223;DHT22;29895;48.804;9.386;2023-02-24T08:19:48;9.10;99.90
44223;DHT22;29895;48.804;9.386;2023-02-24T08:22:15;9.10;99.90
44223;DHT22;29895;48.804;9.386;2023-02-24T08:25:13;9.20;99.90
44223;DHT22;29895;48.804;9.386;2023-02-24T08:27:43;9.30;99.90
44223;DHT22;29895;48.804;9.386;2023-02-24T08:30:11;9.30;99.90
44223;DHT22;29895;48.804;9.386;2023-02-24T08:32:49;9.40;99.90
44223;DHT22;29895;48.804;9.386;2023-02-24T08:35:22;9.40;99.90
44223;DHT22;29895;48.804;9.386;2023-02-24T08:37:52;9.40;99.90
44223;DHT22;29895;48.804;9.386;2023-02-24T08:40:24;9.30;99.90
44223;DHT22;29895;48.804;9.386;2023-02-24T08:43:04;9.30;99.90
44223;DHT22;29895;48.804;9.386;2023-02-24T08:51:17;9.20;99.90
44223;DHT22;29895;48.804;9.386;2023-02-24T08:53:51;9.20;99.90
44223;DHT22;29895;48.804;9.386;2023-02-24T08:56:28;9.30;99.90
44223;DHT22;29895;48.804;9.386;2023-02-24T08:59:00;9.40;99.90
44223;DHT22;29895;48.804;9.386;2023-02-24T09:01:32;9.50;99.90
44223;DHT22;29895;48.804;9.386;2023-02-24T09:04:09;9.60;99.90
44223;DHT22;29895;48.804;9.386;2023-02-24T09:06:49;9.60;99.90
44223;DHT22;29895;48.804;9.386;2023-02-24T09:09:19;9.70;99.90
44223;DHT22;29895;48.804;9.386;2023-02-24T09:11:48;9.70;99.90
44223;DHT22;29895;48.804;9.386;2023-02-24T09:14:17;9.70;99.90
44223;DHT22;29895;48.804;9.386;2023-02-24T09:16:44;9.80;99.90
44223;DHT22;29895;48.804;9.386;2023-02-24T09:19:31;9.80;99.90
44223;DHT22;29895;48.804;9.386;2023-02-24T09:22:12;9.90;99.90
44223;DHT22;29895;48.804;9.386;2023-02-24T09:24:54;9.90;99.90
44223;DHT22;29895;48.804;9.386;2023-02-24T09:27:40;9.80;99.90
44223;DHT22;29895;48.804;9.386;2023-02-24T09:30:12;9.80;99.90
44223;DHT22;29895;48.804;9.386;2023-02-24T09:32:57;9.60;99.90
44223;DHT22;29895;48.804;9.386;2023-02-24T09:35:27;9.70;99.90
44223;DHT22;29895;48.804;9.386;2023-02-24T09:37:59;9.70;99.90
44223;DHT22;29895;48.804;9.386;2023-02-24T09:40:26;9.60;99.90
44223;DHT22;29895;48.804;9.386;2023-02-24T09:43:09;9.60;99.90
44223;DHT22;29895;48.804;9.386;2023-02-24T09:46:00;9.60;99.90
44223;DHT22;29895;48.804;9.386;2023-02-24T09:48:57;9.60;99.90
44223;DHT22;29895;48.804;9.386;2023-02-24T09:51:30;9.50;99.90
44223;DHT22;29895;48.804;9.386;2023-02-24T09:54:17;9.30;99.90
44223;DHT22;29895;48.804;9.386;2023-02-24T10:06:03;9.10;99.90
44223;DHT22;29895;48.804;9.386;2023-02-24T10:08:39;9.20;99.90
44223;DHT22;29895;48.804;9.386;2023-02-24T10:11:09;9.40;99.90
44223;DHT22;29895;48.804;9.386;2023-02-24T10:13:45;9.40;99.90
44223;DHT22;29895;48.804;9.386;2023-02-24T10:16:15;9.50;99.90
44223;DHT22;29895;48.804;9.386;2023-02-24T10:18:52;9.70;99.90
44223;DHT22;29895;48.804;9.386;2023-02-24T10:22:05;9.80;99.90
44223;DHT22;29895;48.804;9.386;2023-02-24T10:25:03;9.90;99.90
44223;DHT22;29895;48.804;9.386;2023-02-24T10:27:40;10.10;99.90
44223;DHT22;29895;48.804;9.386;2023-02-24T10:30:17;10.10;99.90
44223;DHT22;29895;48.804;9.386;2023-02-24T10:32:56;10.00;99.90
44223;DHT22;29895;48.804;9.386;2023-02-24T10:35:26;10.00;99.90
44223;DHT22;29895;48.804;9.386;2023-02-24T10:37:58;10.00;99.90
44223;DHT22;29895;48.804;9.386;2023-02-24T10:40:32;9.80;99.90
44223;DHT22;29895;48.804;9.386;2023-02-24T10:43:10;9.70;99.90
44223;DHT22;29895;48.804;9.386;2023-02-24T10:45:46;9.70;99.90
44223;DHT22;29895;48.804;9.386;2023-02-24T10:48:18;9.80;99.90
44223;DHT22;29895;48.804;9.386;2023-02-24T10:50:53;10.00;99.90
44223;DHT22;29895;48.804;9.386;2023-02-24T10:53:25;10.00;99.90
44223;DHT22;29895;48.804;9.386;2023-02-24T10:56:15;10.10;99.90
44223;DHT22;29895;48.804;9.386;2023-02-24T11:02:22;10.10;99.90
44223;DHT22;29895;48.804;9.386;2023-02-24T11:05:05;10.10;99.90
44223;DHT22;29895;48.804;9.386;2023-02-24T11:08:04;10.10;99.90
44223;DHT22;29895;48.804;9.386;2023-02-24T11:10:38;10.10;99.90
44223;DHT22;29895;48.804;9.386;2023-02-24T11:13:18;10.30;99.90
44223;DHT22;29895;48.804;9.386;2023-02-24T11:16:03;10.40;99.90
44223;DHT22;29895;48.804;9.386;2023-02-24T11:18:50;10.50;99.90
44223;DHT22;29895;48.804;9.386;2023-02-24T11:21:22;10.50;99.90
44223;DHT22;29895;48.804;9.386;2023-02-24T11:23:52;10.60;99.90
44223;DHT22;29895;48.804;9.386;2023-02-24T11:26:35;10.50;99.90
44223;DHT22;29895;48.804;9.386;2023-02-24T11:29:03;10.50;99.90
44223;DHT22;29895;48.804;9.386;2023-02-24T11:32:00;10.50;99.90
44223;DHT22;29895;48.804;9.386;2023-02-24T11:37:39;10.50;99.90
44223;DHT22;29895;48.804;9.386;2023-02-24T11:42:48;10.30;99.90
44223;DHT22;29895;48.804;9.386;2023-02-24T11:48:12;10.20;99.90
44223;DHT22;29895;48.804;9.386;2023-02-24T11:56:15;10.10;99.90
44223;DHT22;29895;48.804;9.386;2023-02-24T11:59:04;10.10;99.90
44223;DHT22;29895;48.804;9.386;2023-02-24T12:10:06;10.30;99.90
44223;DHT22;29895;48.804;9.386;2023-02-24T12:18:25;10.30;99.90
44223;DHT22;29895;48.804;9.386;2023-02-24T12:23:44;10.30;99.90
44223;DHT22;29895;48.804;9.386;2023-02-24T12:26:40;10.30;99.90
44223;DHT22;29895;48.804;9.386;2023-02-24T12:29:21;10.50;99.90
44223;DHT22;29895;48.804;9.386;2023-02-24T12:32:17;10.70;99.90
44223;DHT22;29895;48.804;9.386;2023-02-24T12:35:19;10.90;99.90
44223;DHT22;29895;48.804;9.386;2023-02-24T12:40:56;11.20;99.90
44223;DHT22;29895;48.804;9.386;2023-02-24T12:46:34;11.50;99.90
44223;DHT22;29895;48.804;9.386;2023-02-24T12:49:27;12.10;99.90
44223;DHT22;29895;48.804;9.386;2023-02-24T12:55:24;12.10;99.90
44223;DHT22;29895;48.804;9.386;2023-02-24T12:58:31;12.10;99.90
44223;DHT22;29895;48.804;9.386;2023-02-24T13:03:52;12.10;99.90
44223;DHT22;29895;48.804;9.386;2023-02-24T13:07:11;12.20;99.90
44223;DHT22;29895;48.804;9.386;2023-02-24T13:09:36;12.10;99.90
44223;DHT22;29895;48.804;9.386;2023-02-24T13:12:27;12.10;99.90
44223;DHT22;29895;48.804;9.386;2023-02-24T13:14:52;12.20;99.90
44223;DHT22;29895;48.804;9.386;2023-02-24T13:17:23;12.10;99.90
44223;DHT22;29895;48.804;9.386;2023-02-24T13:19:52;12.00;99.90
44223;DHT22;29895;48.804;9.386;2023-02-24T13:22:19;11.70;99.90
44223;DHT22;29895;48.804;9.386;2023-02-24T13:24:58;11.60;99.90
44223;DHT22;29895;48.804;9.386;2023-02-24T13:27:33;11.60;99.90
44223;DHT22;29895;48.804;9.386;2023-02-24T13:30:18;11.50;99.90
44223;DHT22;29895;48.804;9.386;2023-02-24T13:33:02;11.50;99.90
44223;DHT22;29895;48.804;9.386;2023-02-24T13:35:34;11.40;99.90
44223;DHT22;29895;48.804;9.386;2023-02-24T13:40:47;11.20;99.90
44223;DHT22;29895;48.804;9.386;2023-02-24T13:43:27;11.10;99.90
44223;DHT22;29895;48.804;9.386;2023-02-24T13:45:59;11.20;99.90
44223;DHT22;29895;48.804;9.386;2023-02-24T13:54:06;11.40;99.90
44223;DHT22;29895;48.804;9.386;2023-02-24T13:56:55;11.40;99.90
44223;DHT22;29895;48.804;9.386;2023-02-24T13:59:51;11.30;99.90
44223;DHT22;29895;48.804;9.386;2023-02-24T14:02:28;11.30;99.90
44223;DHT22;29895;48.804;9.386;2023-02-24T14:04:57;11.30;99.90
44223;DHT22;29895;48.804;9.386;2023-02-24T14:07:27;11.30;99.90
44223;DHT22;29895;48.804;9.386;2023-02-24T14:09:59;11.30;99.90
44223;DHT22;29895;48.804;9.386;2023-02-24T14:12:31;11.20;99.90
44223;DHT22;29895;48.804;9.386;2023-02-24T14:15:02;11.20;99.90
44223;DHT22;29895;48.804;9.386;2023-02-24T14:17:33;11.10;99.90
44223;DHT22;29895;48.804;9.386;2023-02-24T14:20:07;11.00;99.90
44223;DHT22;29895;48.804;9.386;2023-02-24T14:22:34;10.90;99.90
44223;DHT22;29895;48.804;9.386;2023-02-24T14:25:05;10.70;99.90
44223;DHT22;29895;48.804;9.386;2023-02-24T14:27:33;10.70;99.90
44223;DHT22;29895;48.804;9.386;2023-02-24T14:29:59;10.60;99.90
44223;DHT22;29895;48.804;9.386;2023-02-24T14:32:26;10.60;99.90
44223;DHT22;29895;48.804;9.386;2023-02-24T14:34:53;10.50;99.90
44223;DHT22;29895;48.804;9.386;2023-02-24T14:37:28;10.50;99.90
44223;DHT22;29895;48.804;9.386;2023-02-24T14:39:57;10.50;99.90
44223;DHT22;29895;48.804;9.386;2023-02-24T14:42:23;10.50;99.90
44223;DHT22;29895;48.804;9.386;2023-02-24T14:44:54;10.40;99.90
44223;DHT22;29895;48.804;9.386;2023-02-24T14:47:23;10.40;99.90
44223;DHT22;29895;48.804;9.386;2023-02-24T14:50:00;10.40;99.90
44223;DHT22;29895;48.804;9.386;2023-02-24T14:58:10;10.40;99.90
44223;DHT22;29895;48.804;9.386;2023-02-24T15:00:47;10.40;99.90
44223;DHT22;29895;48.804;9.386;2023-02-24T15:03:38;10.40;99.90
44223;DHT22;29895;48.804;9.386;2023-02-24T15:06:17;10.30;99.90
44223;DHT22;29895;48.804;9.386;2023-02-24T15:08:49;10.40;99.90
44223;DHT22;29895;48.804;9.386;2023-02-24T15:18:58;10.30;99.90
44223;DHT22;29895;48.804;9.386;2023-02-24T15:21:31;10.20;99.90
44223;DHT22;29895;48.804;9.386;2023-02-24T15:24:03;10.20;99.90
44223;DHT22;29895;48.804;9.386;2023-02-24T15:26:40;10.20;99.90
44223;DHT22;29895;48.804;9.386;2023-02-24T15:29:17;10.10;99.90
44223;DHT22;29895;48.804;9.386;2023-02-24T15:31:48;10.20;99.90
44223;DHT22;29895;48.804;9.386;2023-02-24T15:34:26;10.10;99.90
44223;DHT22;29895;48.804;9.386;2023-02-24T15:36:57;10.00;99.90
44223;DHT22;29895;48.804;9.386;2023-02-24T15:39:28;10.00;99.90
44223;DHT22;29895;48.804;9.386;2023-02-24T15:44:33;10.00;99.90
44223;DHT22;29895;48.804;9.386;2023-02-24T15:47:10;10.00;99.90
44223;DHT22;29895;48.804;9.386;2023-02-24T15:49:36;10.10;99.90
44223;DHT22;29895;48.804;9.386;2023-02-24T15:52:02;10.00;99.90
44223;DHT22;29895;48.804;9.386;2023-02-24T15:54:33;10.00;99.90
44223;DHT22;29895;48.804;9.386;2023-02-24T15:57:01;10.00;99.90
44223;DHT22;29895;48.804;9.386;2023-02-24T15:59:27;10.00;99.90
44223;DHT22;29895;48.804;9.386;2023-02-24T16:01:53;10.00;99.90
44223;DHT22;29895;48.804;9.386;2023-02-24T16:04:20;9.90;99.90
44223;DHT22;29895;48.804;9.386;2023-02-24T16:06:50;9.90;99.90
44223;DHT22;29895;48.804;9.386;2023-02-24T16:09:38;9.80;99.90
44223;DHT22;29895;48.804;9.386;2023-02-24T16:12:12;9.70;99.90
44223;DHT22;29895;48.804;9.386;2023-02-24T16:14:39;9.70;99.90
44223;DHT22;29895;48.804;9.386;2023-02-24T16:17:35;9.60;99.90
44223;DHT22;29895;48.804;9.386;2023-02-24T16:20:05;9.50;99.90
44223;DHT22;29895;48.804;9.386;2023-02-24T16:22:34;9.40;99.90
44223;DHT22;29895;48.804;9.386;2023-02-24T16:25:00;9.30;99.90
44223;DHT22;29895;48.804;9.386;2023-02-24T16:27:26;9.30;99.90
44223;DHT22;29895;48.804;9.386;2023-02-24T16:29:54;9.20;99.90
44223;DHT22;29895;48.804;9.386;2023-02-24T16:32:20;9.10;99.90
44223;DHT22;29895;48.804;9.386;2023-02-24T16:34:48;9.10;99.90
44223;DHT22;29895;48.804;9.386;2023-02-24T16:37:18;9.00;99.90
44223;DHT22;29895;48.804;9.386;2023-02-24T16:39:44;9.00;99.90
44223;DHT22;29895;48.804;9.386;2023-02-24T16:42:10;9.00;99.90
44223;DHT22;29895;48.804;9.386;2023-02-24T16:44:36;9.00;99.90
44223;DHT22;29895;48.804;9.386;2023-02-24T16:47:02;9.00;99.90
44223;DHT22;29895;48.804;9.386;2023-02-24T16:49:28;9.00;99.90
44223;DHT22;29895;48.804;9.386;2023-02-24T16:51:53;9.00;99.90
44223;DHT22;29895;48.804;9.386;2023-02-24T16:54:19;9.00;99.90
44223;DHT22;29895;48.804;9.386;2023-02-24T16:56:56;9.00;99.90
44223;DHT22;29895;48.804;9.386;2023-02-24T16:59:22;8.90;99.90
44223;DHT22;29895;48.804;9.386;2023-02-24T17:01:48;8.90;99.90
44223;DHT22;29895;48.804;9.386;2023-02-24T17:04:16;8.90;99.90
44223;DHT22;29895;48.804;9.386;2023-02-24T17:06:51;8.80;99.90
44223;DHT22;29895;48.804;9.386;2023-02-24T17:09:18;8.90;99.90
44223;DHT22;29895;48.804;9.386;2023-02-24T17:11:44;8.90;99.90
44223;DHT22;29895;48.804;9.386;2023-02-24T17:14:16;8.90;99.90
44223;DHT22;29895;48.804;9.386;2023-02-24T17:16:44;8.90;99.90
44223;DHT22;29895;48.804;9.386;2023-02-24T17:19:11;8.90;99.90
44223;DHT22;29895;48.804;9.386;2023-02-24T17:21:43;8.90;99.90
44223;DHT22;29895;48.804;9.386;2023-02-24T17:24:16;8.90;99.90
44223;DHT22;29895;48.804;9.386;2023-02-24T17:26:42;8.90;99.90
44223;DHT22;29895;48.804;9.386;2023-02-24T17:29:08;8.90;99.90
44223;DHT22;29895;48.804;9.386;2023-02-24T17:31:34;9.00;99.90
44223;DHT22;29895;48.804;9.386;2023-02-24T17:34:00;9.00;99.90
44223;DHT22;29895;48.804;9.386;2023-02-24T17:36:26;9.00;99.90
44223;DHT22;29895;48.804;9.386;2023-02-24T17:38:52;9.00;99.90
44223;DHT22;29895;48.804;9.386;2023-02-24T17:41:18;9.10;99.90
44223;DHT22;29895;48.804;9.386;2023-02-24T17:43:44;9.10;99.90
44223;DHT22;29895;48.804;9.386;2023-02-24T17:46:13;9.10;99.90
44223;DHT22;29895;48.804;9.386;2023-02-24T17:48:39;9.10;99.90
44223;DHT22;29895;48.804;9.386;2023-02-24T17:51:04;9.10;99.90
44223;DHT22;29895;48.804;9.386;2023-02-24T17:53:30;9.10;99.90
44223;DHT22;29895;48.804;9.386;2023-02-24T17:56:04;9.10;99.90
44223;DHT22;29895;48.804;9.386;2023-02-24T17:58:30;9.10;99.90
44223;DHT22;29895;48.804;9.386;2023-02-24T18:00:56;9.10;99.90
44223;DHT22;29895;48.804;9.386;2023-02-24T18:03:22;9.00;99.90
44223;DHT22;29895;48.804;9.386;2023-02-24T18:06:07;9.00;99.90
44223;DHT22;29895;48.804;9.386;2023-02-24T18:08:34;9.00;99.90
44223;DHT22;29895;48.804;9.386;2023-02-24T18:11:00;9.00;99.90